Time;durP1;ratioP1;P1;durP2;ratioP2;P2;SDS_P1;SDS_P2;PMS_P1;PMS_P2;Temp;Humidity;BMP_temperature;BMP_pressure;BME280_temperature;BME280_humidity;BME280_pressure;Samples;Min_cycle;Max_cycle;Signal;HPM_P1;HPM_P2
2024/04/23 00:05:56;;;;;;;0.20;0.20;;;0.00;99.90;;;;;;22597599;26;19952;-43
2024/04/23 00:15:58;;;;;;;0.32;0.20;;;0.00;99.90;;;;;;22709322;26;20376;-45
2024/04/23 00:26:00;;;;;;;0.20;0.20;;;0.00;99.90;;;;;;22707417;26;20073;-44
2024/04/23 00:36:02;;;;;;;0.30;0.20;;;0.00;99.90;;;;;;22628941;26;20033;-43
2024/04/23 00:46:05;;;;;;;1.48;0.30;;;-0.10;99.90;;;;;;22704894;26;20026;-45
2024/04/23 00:56:09;;;;;;;0.70;0.50;;;-0.10;99.90;;;;;;22651973;26;20447;-45
2024/04/23 01:06:11;;;;;;;0.50;0.30;;;-0.10;99.90;;;;;;22704774;26;20029;-45
2024/04/23 01:16:14;;;;;;;0.80;0.40;;;-0.10;99.90;;;;;;22642620;26;20025;-46
2024/04/23 01:26:18;;;;;;;0.75;0.45;;;-0.10;99.90;;;;;;22656798;26;20022;-43
2024/04/23 01:36:21;;;;;;;1.40;0.40;;;-0.10;99.90;;;;;;22699914;26;20100;-43
2024/04/23 01:46:22;;;;;;;0.52;0.40;;;-0.20;99.90;;;;;;22702174;26;20034;-46
2024/04/23 01:56:24;;;;;;;0.40;0.30;;;-0.20;99.90;;;;;;22652384;26;20034;-45
2024/04/23 02:06:27;;;;;;;0.60;0.22;;;-0.20;99.90;;;;;;22607614;26;20096;-44
2024/04/23 02:16:29;;;;;;;0.55;0.40;;;-0.30;99.90;;;;;;22716883;26;20030;-44
2024/04/23 02:26:31;;;;;;;0.47;0.30;;;-0.20;99.90;;;;;;22653247;26;20034;-43
2024/04/23 02:36:33;;;;;;;0.60;0.30;;;-0.30;99.90;;;;;;22666353;26;20034;-45
2024/04/23 02:46:35;;;;;;;0.43;0.30;;;-0.40;99.90;;;;;;22579444;26;20035;-45
2024/04/23 02:56:40;;;;;;;0.77;0.40;;;-0.30;99.90;;;;;;22600647;26;20100;-43
2024/04/23 03:06:41;;;;;;;0.60;0.40;;;-0.30;99.90;;;;;;22592218;26;20115;-44
2024/04/23 03:16:43;;;;;;;0.52;0.40;;;-0.30;99.90;;;;;;22710683;26;20030;-44
2024/04/23 03:26:46;;;;;;;1.08;0.52;;;-0.30;99.90;;;;;;22648856;26;20026;-44
2024/04/23 03:36:47;;;;;;;0.93;0.52;;;-0.30;99.90;;;;;;22591355;26;20476;-44
2024/04/23 03:46:53;;;;;;;2.00;0.60;;;-0.30;99.90;;;;;;22633707;26;20023;-43
2024/04/23 03:56:55;;;;;;;1.58;0.68;;;-0.30;99.90;;;;;;22668025;26;20026;-44
2024/04/23 04:06:57;;;;;;;0.75;0.50;;;-0.30;99.90;;;;;;22708076;26;20574;-46
2024/04/23 04:16:59;;;;;;;0.85;0.57;;;-0.30;99.90;;;;;;22701876;26;20030;-43
2024/04/23 04:27:00;;;;;;;0.57;0.47;;;-0.30;99.90;;;;;;22566308;26;20220;-44
2024/04/23 04:37:02;;;;;;;0.90;0.50;;;-0.20;99.90;;;;;;22591031;26;20395;-43
2024/04/23 04:47:04;;;;;;;0.80;0.50;;;-0.20;99.90;;;;;;22634023;26;20042;-45
2024/04/23 04:57:06;;;;;;;0.50;0.35;;;-0.20;99.90;;;;;;22665951;26;20026;-44
2024/04/23 05:07:07;;;;;;;0.57;0.30;;;-0.10;99.90;;;;;;22555883;26;20027;-45
2024/04/23 05:17:09;;;;;;;1.55;0.50;;;0.00;99.90;;;;;;22521603;26;20027;-45
2024/04/23 05:27:11;;;;;;;0.47;0.30;;;0.00;99.90;;;;;;22573424;26;20023;-44
2024/04/23 05:37:14;;;;;;;0.60;0.40;;;0.20;99.90;;;;;;22553946;26;20035;-44
2024/04/23 05:47:16;;;;;;;1.20;0.40;;;0.60;99.90;;;;;;22548210;26;20145;-43
2024/04/23 05:57:17;;;;;;;0.50;0.30;;;0.60;99.90;;;;;;22552204;26;20476;-44
2024/04/23 06:07:21;;;;;;;0.22;0.20;;;0.40;99.90;;;;;;22551402;26;20093;-44
2024/04/23 06:17:28;;;;;;;0.68;0.40;;;0.40;99.90;;;;;;22545789;26;20030;-43
2024/04/23 06:27:36;;;;;;;0.38;0.20;;;0.70;99.90;;;;;;22550858;26;20435;-45
2024/04/23 06:37:38;;;;;;;0.65;0.40;;;0.80;99.90;;;;;;22549350;26;20488;-45
2024/04/23 06:47:40;;;;;;;0.77;0.32;;;0.80;99.90;;;;;;22545686;26;20054;-45
2024/04/23 06:57:42;;;;;;;0.40;0.20;;;0.90;99.90;;;;;;22558732;26;20554;-43
2024/04/23 07:07:45;;;;;;;0.57;0.35;;;1.70;99.90;;;;;;22558256;26;20074;-44
2024/04/23 07:17:46;;;;;;;0.50;0.30;;;2.00;99.90;;;;;;22556455;26;20026;-46
2024/04/23 07:27:48;;;;;;;0.95;0.40;;;1.90;99.90;;;;;;22564698;26;20077;-44
2024/04/23 07:37:51;;;;;;;1.05;0.50;;;1.80;99.90;;;;;;22575126;26;20104;-45
2024/04/23 07:47:52;;;;;;;0.63;0.30;;;2.00;99.90;;;;;;22533549;26;20085;-45
2024/04/23 07:57:54;;;;;;;0.40;0.30;;;2.30;99.90;;;;;;22553417;26;20054;-46
2024/04/23 08:07:59;;;;;;;0.40;0.30;;;3.10;99.90;;;;;;22553138;26;20022;-45
2024/04/23 08:18:00;;;;;;;0.30;0.20;;;3.60;99.90;;;;;;22547342;26;20133;-44
2024/04/23 08:28:02;;;;;;;0.45;0.10;;;3.20;99.90;;;;;;22554648;26;20039;-44
2024/04/23 08:38:04;;;;;;;0.32;0.10;;;3.60;99.90;;;;;;22553481;26;20100;-46
2024/04/23 08:48:07;;;;;;;0.20;0.10;;;3.00;99.90;;;;;;22546835;26;20104;-46
2024/04/23 08:58:11;;;;;;;0.60;0.20;;;2.00;99.90;;;;;;22555173;26;20090;-44
2024/04/23 09:08:15;;;;;;;0.40;0.20;;;1.40;99.90;;;;;;22549008;26;20035;-46
2024/04/23 09:18:18;;;;;;;0.30;0.20;;;0.60;99.90;;;;;;22548531;26;20068;-44
2024/04/23 09:28:21;;;;;;;0.03;0.00;;;0.60;99.90;;;;;;22546565;26;20480;-45
2024/04/23 09:38:22;;;;;;;0.10;0.10;;;1.20;99.90;;;;;;22553942;26;20097;-45
2024/04/23 09:48:35;;;;;;;0.10;0.00;;;1.70;99.90;;;;;;22548367;26;20034;-45
2024/04/23 09:58:36;;;;;;;0.00;0.00;;;2.60;99.90;;;;;;22564103;26;20031;-46
2024/04/23 10:08:47;;;;;;;0.00;0.00;;;2.80;99.90;;;;;;22546437;26;20112;-47
2024/04/23 10:19:11;;;;;;;0.20;0.10;;;3.30;99.90;;;;;;22542961;26;20035;-45
2024/04/23 10:29:13;;;;;;;0.15;0.10;;;3.10;99.90;;;;;;22550191;26;20096;-46
2024/04/23 10:39:17;;;;;;;0.75;0.30;;;2.20;99.90;;;;;;22566701;26;20022;-45
2024/04/23 10:49:25;;;;;;;0.30;0.20;;;1.30;99.90;;;;;;22556134;26;20565;-45
2024/04/23 10:59:32;;;;;;;0.20;0.10;;;0.80;99.90;;;;;;22552003;26;20068;-45
2024/04/23 11:09:45;;;;;;;0.20;0.20;;;1.30;99.90;;;;;;22539863;26;20031;-45
2024/04/23 11:19:52;;;;;;;0.20;0.10;;;1.70;99.90;;;;;;22499886;26;20030;-41
2024/04/23 11:29:55;;;;;;;0.13;0.10;;;1.70;99.90;;;;;;22553559;26;20375;-42
2024/04/23 11:40:01;;;;;;;0.10;0.03;;;1.70;99.90;;;;;;22552036;26;20035;-45
2024/04/23 11:50:07;;;;;;;0.00;0.00;;;2.00;99.90;;;;;;22562639;26;20026;-46
2024/04/23 12:00:10;;;;;;;0.00;0.00;;;2.10;99.90;;;;;;22553516;26;20097;-45
2024/04/23 12:10:42;;;;;;;0.13;0.00;;;1.90;99.90;;;;;;22559467;26;20112;-43
2024/04/23 12:20:45;;;;;;;0.00;0.00;;;2.30;99.90;;;;;;22552328;26;20620;-44
2024/04/23 12:30:47;;;;;;;0.00;0.00;;;2.20;99.90;;;;;;22552957;26;20096;-42
2024/04/23 12:40:52;;;;;;;0.03;0.00;;;1.90;99.90;;;;;;22534229;26;20030;-45
2024/04/23 12:50:56;;;;;;;0.00;0.00;;;1.80;99.90;;;;;;22553343;26;20477;-47
2024/04/23 13:00:57;;;;;;;0.00;0.00;;;2.90;99.90;;;;;;22551239;26;20089;-43
2024/04/23 13:10:59;;;;;;;0.10;0.00;;;4.80;99.90;;;;;;22555570;26;20027;-44
2024/04/23 13:21:03;;;;;;;0.00;0.00;;;4.60;99.90;;;;;;22547176;26;20680;-39
2024/04/23 13:31:08;;;;;;;0.20;0.20;;;5.10;99.90;;;;;;22543119;26;20030;-39
2024/04/23 13:41:10;;;;;;;0.10;0.10;;;4.20;99.90;;;;;;22543880;26;20031;-39
2024/04/23 13:51:11;;;;;;;0.15;0.10;;;5.30;99.90;;;;;;22528431;26;20096;-39
2024/04/23 14:01:13;;;;;;;0.65;0.10;;;6.00;99.90;;;;;;22548251;26;20042;-39
2024/04/23 14:11:15;;;;;;;1.33;0.80;;;6.10;99.90;;;;;;22564460;26;20030;-39
2024/04/23 14:21:17;;;;;;;0.68;0.50;;;5.80;99.90;;;;;;22560020;26;20503;-39
2024/04/23 14:31:19;;;;;;;1.08;0.70;;;5.10;99.90;;;;;;22557457;26;20097;-39
2024/04/23 14:41:21;;;;;;;0.90;0.40;;;4.90;99.90;;;;;;22506961;26;20104;-38
2024/04/23 14:51:22;;;;;;;1.85;0.43;;;5.20;99.90;;;;;;22573390;26;20023;-38
2024/04/23 15:01:24;;;;;;;1.70;0.43;;;5.30;99.90;;;;;;22556541;26;20030;-38
2024/04/23 15:11:27;;;;;;;1.65;0.90;;;4.70;99.90;;;;;;22558963;26;20030;-38
2024/04/23 15:21:30;;;;;;;0.85;0.65;;;4.10;99.90;;;;;;22539509;26;20100;-39
2024/04/23 15:31:32;;;;;;;1.30;1.00;;;5.00;99.90;;;;;;22545222;26;20578;-39
2024/04/23 15:41:34;;;;;;;1.27;1.00;;;4.30;99.90;;;;;;22565460;26;20289;-38
2024/04/23 15:51:36;;;;;;;1.20;0.93;;;4.50;99.90;;;;;;22561411;26;20038;-39
2024/04/23 16:01:38;;;;;;;1.58;1.10;;;5.70;99.90;;;;;;22554197;26;20089;-38
2024/04/23 16:11:41;;;;;;;1.27;1.17;;;6.20;99.90;;;;;;22552719;26;20046;-38
2024/04/23 16:21:42;;;;;;;2.33;1.20;;;6.10;99.90;;;;;;22554101;26;20030;-38
2024/04/23 16:31:44;;;;;;;1.65;1.10;;;6.00;99.90;;;;;;22548300;26;20034;-39
2024/04/23 16:41:46;;;;;;;2.33;1.23;;;6.00;99.90;;;;;;22522397;26;20034;-38
2024/04/23 16:51:48;;;;;;;1.27;0.80;;;5.80;99.90;;;;;;22526427;26;20038;-36
2024/04/23 17:01:49;;;;;;;2.47;1.05;;;5.60;99.90;;;;;;22524083;26;20120;-37
2024/04/23 17:11:51;;;;;;;0.70;0.70;;;5.50;99.90;;;;;;22565594;26;20030;-43
2024/04/23 17:21:53;;;;;;;1.60;1.38;;;5.10;99.90;;;;;;22567499;26;20037;-46
2024/04/23 17:31:55;;;;;;;2.60;1.92;;;4.50;99.90;;;;;;22666381;26;20031;-46
2024/04/23 17:41:57;;;;;;;2.00;1.50;;;3.90;99.90;;;;;;22630640;26;20055;-46
2024/04/23 17:51:59;;;;;;;3.17;2.40;;;3.40;99.90;;;;;;22620031;26;20432;-44
2024/04/23 18:02:01;;;;;;;3.65;2.53;;;2.90;99.90;;;;;;22617553;26;20031;-43
2024/04/23 18:12:03;;;;;;;16.30;9.10;;;2.50;99.90;;;;;;22602105;26;20074;-46
2024/04/23 18:22:05;;;;;;;13.02;10.45;;;2.20;99.90;;;;;;22585884;26;20434;-43
2024/04/23 18:32:07;;;;;;;6.97;5.30;;;1.80;99.90;;;;;;22556821;26;20034;-43
2024/04/23 18:42:09;;;;;;;5.18;3.40;;;1.50;99.90;;;;;;22615711;26;20026;-43
2024/04/23 18:52:11;;;;;;;5.45;3.40;;;1.30;99.90;;;;;;22595093;26;20491;-44
2024/04/23 19:02:13;;;;;;;5.13;3.58;;;1.10;99.90;;;;;;22446260;26;20031;-45
2024/04/23 19:12:15;;;;;;;17.58;11.20;;;1.00;99.90;;;;;;22569402;26;20027;-43
2024/04/23 19:22:17;;;;;;;7.97;5.65;;;0.90;99.90;;;;;;22601279;26;20030;-43
2024/04/23 19:32:21;;;;;;;14.20;9.43;;;0.90;99.90;;;;;;22711813;26;20028;-43
2024/04/23 19:42:23;;;;;;;5.68;3.22;;;0.90;99.90;;;;;;22708944;26;20026;-46
2024/04/23 19:52:25;;;;;;;8.13;5.53;;;1.00;99.90;;;;;;22659732;26;20351;-46
2024/04/23 20:02:27;;;;;;;6.68;4.78;;;1.10;99.90;;;;;;22578681;26;20054;-43
2024/04/23 20:12:29;;;;;;;5.00;3.72;;;1.10;99.90;;;;;;22676059;26;20088;-43
2024/04/23 20:22:34;;;;;;;7.68;5.40;;;1.10;99.90;;;;;;22707552;26;20030;-46
2024/04/23 20:32:39;;;;;;;8.23;5.95;;;1.20;99.90;;;;;;22691465;26;20050;-43
2024/04/23 20:42:41;;;;;;;97.18;12.13;;;1.20;99.90;;;;;;22677546;26;20096;-43
2024/04/23 20:52:43;;;;;;;9.75;6.88;;;1.20;99.90;;;;;;22656728;26;20037;-36
2024/04/23 21:02:45;;;;;;;10.50;6.88;;;1.20;99.90;;;;;;22706204;26;20030;-43
2024/04/23 21:12:47;;;;;;;7.55;4.88;;;1.10;99.90;;;;;;22613052;26;20050;-45
2024/04/23 21:22:51;;;;;;;7.10;4.90;;;1.00;99.90;;;;;;22602684;26;20096;-44
2024/04/23 21:32:53;;;;;;;10.70;7.10;;;1.00;99.90;;;;;;22703724;26;20026;-44
2024/04/23 21:42:55;;;;;;;7.82;5.53;;;1.10;99.90;;;;;;22681766;26;20035;-44
2024/04/23 21:53:00;;;;;;;9.48;6.20;;;1.10;99.90;;;;;;22601508;26;20096;-47
2024/04/23 22:03:02;;;;;;;9.20;6.13;;;1.10;99.90;;;;;;22701601;26;20030;-46
2024/04/23 22:13:04;;;;;;;12.27;7.70;;;1.10;99.90;;;;;;22700649;26;20026;-44
2024/04/23 22:23:06;;;;;;;11.60;7.88;;;1.10;99.90;;;;;;22671243;26;20053;-44
2024/04/23 22:33:11;;;;;;;12.57;7.88;;;1.10;99.90;;;;;;22691761;26;20092;-43
2024/04/23 22:43:12;;;;;;;9.65;6.88;;;1.10;99.90;;;;;;22692806;26;20034;-46
2024/04/23 22:53:17;;;;;;;4.45;3.13;;;1.10;99.90;;;;;;22631270;26;20104;-44
2024/04/23 23:03:19;;;;;;;3.97;2.90;;;1.30;99.90;;;;;;22713083;26;20002;-44
2024/04/23 23:13:21;;;;;;;4.25;2.40;;;1.50;99.90;;;;;;22611613;26;20031;-44
2024/04/23 23:23:23;;;;;;;3.00;2.15;;;1.60;99.90;;;;;;22585901;26;20541;-44
2024/04/23 23:33:25;;;;;;;3.22;2.35;;;1.60;99.90;;;;;;22647387;26;20095;-44
2024/04/23 23:43:26;;;;;;;2.45;1.90;;;1.50;99.90;;;;;;22681219;26;20660;-44
2024/04/23 23:53:28;;;;;;;2.60;1.88;;;1.50;99.90;;;;;;22616359;26;20373;-43
